sensor_id;sensor_type;location;lat;lon;timestamp;P1;durP1;ratioP1;P2;durP2;ratioP2
34102;SDS011;20381;54.498;18.206;2023-02-27T00:01:39;10.08;;;4.50;;
34102;SDS011;20381;54.498;18.206;2023-02-27T00:08:11;10.03;;;4.40;;
34102;SDS011;20381;54.498;18.206;2023-02-27T00:10:40;8.60;;;4.12;;
34102;SDS011;20381;54.498;18.206;2023-02-27T00:13:13;7.45;;;3.67;;
34102;SDS011;20381;54.498;18.206;2023-02-27T00:15:45;6.67;;;3.62;;
34102;SDS011;20381;54.498;18.206;2023-02-27T00:18:18;8.68;;;3.80;;
34102;SDS011;20381;54.498;18.206;2023-02-27T00:24:34;10.65;;;3.85;;
34102;SDS011;20381;54.498;18.206;2023-02-27T00:31:06;8.60;;;3.15;;
34102;SDS011;20381;54.498;18.206;2023-02-27T00:37:34;5.83;;;2.45;;
34102;SDS011;20381;54.498;18.206;2023-02-27T00:43:42;5.60;;;2.77;;
34102;SDS011;20381;54.498;18.206;2023-02-27T00:49:39;13.65;;;3.92;;
34102;SDS011;20381;54.498;18.206;2023-02-27T00:56:09;11.83;;;4.40;;
34102;SDS011;20381;54.498;18.206;2023-02-27T01:02:07;6.62;;;3.00;;
34102;SDS011;20381;54.498;18.206;2023-02-27T01:04:39;5.55;;;2.83;;
34102;SDS011;20381;54.498;18.206;2023-02-27T01:07:09;6.90;;;2.80;;
34102;SDS011;20381;54.498;18.206;2023-02-27T01:09:42;5.62;;;3.02;;
34102;SDS011;20381;54.498;18.206;2023-02-27T01:12:14;6.97;;;2.77;;
34102;SDS011;20381;54.498;18.206;2023-02-27T01:14:51;5.42;;;2.30;;
34102;SDS011;20381;54.498;18.206;2023-02-27T01:17:20;5.37;;;3.10;;
34102;SDS011;20381;54.498;18.206;2023-02-27T01:19:53;6.60;;;2.98;;
34102;SDS011;20381;54.498;18.206;2023-02-27T01:22:26;7.03;;;3.12;;
34102;SDS011;20381;54.498;18.206;2023-02-27T01:24:58;7.55;;;4.87;;
34102;SDS011;20381;54.498;18.206;2023-02-27T01:27:31;12.35;;;4.00;;
34102;SDS011;20381;54.498;18.206;2023-02-27T01:33:55;7.22;;;3.87;;
34102;SDS011;20381;54.498;18.206;2023-02-27T01:40:26;8.33;;;3.55;;
34102;SDS011;20381;54.498;18.206;2023-02-27T01:50:33;10.38;;;4.17;;
34102;SDS011;20381;54.498;18.206;2023-02-27T01:57:02;8.05;;;3.92;;
34102;SDS011;20381;54.498;18.206;2023-02-27T02:03:35;5.67;;;2.95;;
34102;SDS011;20381;54.498;18.206;2023-02-27T02:10:16;5.90;;;2.42;;
34102;SDS011;20381;54.498;18.206;2023-02-27T03:05:52;13.62;;;5.10;;
34102;SDS011;20381;54.498;18.206;2023-02-27T03:12:25;10.30;;;3.42;;
34102;SDS011;20381;54.498;18.206;2023-02-27T03:25:48;5.15;;;3.05;;
34102;SDS011;20381;54.498;18.206;2023-02-27T03:32:22;5.78;;;2.60;;
34102;SDS011;20381;54.498;18.206;2023-02-27T03:39:33;11.30;;;3.50;;
34102;SDS011;20381;54.498;18.206;2023-02-27T04:12:19;5.50;;;2.95;;
34102;SDS011;20381;54.498;18.206;2023-02-27T04:23:19;12.18;;;4.15;;
34102;SDS011;20381;54.498;18.206;2023-02-27T04:30:19;6.08;;;2.62;;
34102;SDS011;20381;54.498;18.206;2023-02-27T04:37:31;8.40;;;2.30;;
34102;SDS011;20381;54.498;18.206;2023-02-27T05:26:39;9.50;;;4.03;;
34102;SDS011;20381;54.498;18.206;2023-02-27T05:40:25;4.20;;;2.62;;
34102;SDS011;20381;54.498;18.206;2023-02-27T05:43:19;2.83;;;2.10;;
34102;SDS011;20381;54.498;18.206;2023-02-27T05:46:10;3.85;;;2.80;;
34102;SDS011;20381;54.498;18.206;2023-02-27T05:48:58;4.22;;;2.50;;
34102;SDS011;20381;54.498;18.206;2023-02-27T05:51:32;3.33;;;2.52;;
34102;SDS011;20381;54.498;18.206;2023-02-27T05:58:47;4.85;;;2.72;;
34102;SDS011;20381;54.498;18.206;2023-02-27T06:01:23;3.92;;;2.62;;
34102;SDS011;20381;54.498;18.206;2023-02-27T06:04:08;6.17;;;3.40;;
34102;SDS011;20381;54.498;18.206;2023-02-27T06:06:40;7.05;;;3.70;;
34102;SDS011;20381;54.498;18.206;2023-02-27T06:09:13;6.15;;;3.12;;
34102;SDS011;20381;54.498;18.206;2023-02-27T06:11:46;7.47;;;3.27;;
34102;SDS011;20381;54.498;18.206;2023-02-27T06:14:19;4.72;;;3.30;;
34102;SDS011;20381;54.498;18.206;2023-02-27T06:16:48;6.22;;;3.70;;
34102;SDS011;20381;54.498;18.206;2023-02-27T06:19:28;7.67;;;3.52;;
34102;SDS011;20381;54.498;18.206;2023-02-27T06:22:06;5.95;;;3.65;;
34102;SDS011;20381;54.498;18.206;2023-02-27T06:29:08;6.87;;;3.87;;
34102;SDS011;20381;54.498;18.206;2023-02-27T06:31:37;6.55;;;3.70;;
34102;SDS011;20381;54.498;18.206;2023-02-27T06:34:14;6.87;;;3.83;;
34102;SDS011;20381;54.498;18.206;2023-02-27T06:36:42;9.48;;;4.17;;
34102;SDS011;20381;54.498;18.206;2023-02-27T06:39:15;6.90;;;3.80;;
34102;SDS011;20381;54.498;18.206;2023-02-27T06:47:08;8.20;;;4.50;;
34102;SDS011;20381;54.498;18.206;2023-02-27T06:56:34;6.67;;;3.95;;
34102;SDS011;20381;54.498;18.206;2023-02-27T06:59:06;9.53;;;4.12;;
34102;SDS011;20381;54.498;18.206;2023-02-27T07:01:38;8.03;;;4.45;;
34102;SDS011;20381;54.498;18.206;2023-02-27T07:04:15;7.78;;;3.42;;
34102;SDS011;20381;54.498;18.206;2023-02-27T07:06:41;5.20;;;3.67;;
34102;SDS011;20381;54.498;18.206;2023-02-27T07:09:21;6.25;;;3.80;;
34102;SDS011;20381;54.498;18.206;2023-02-27T07:11:54;6.55;;;4.40;;
34102;SDS011;20381;54.498;18.206;2023-02-27T07:14:27;9.13;;;5.03;;
34102;SDS011;20381;54.498;18.206;2023-02-27T07:17:04;8.45;;;4.95;;
34102;SDS011;20381;54.498;18.206;2023-02-27T07:19:36;9.43;;;5.67;;
34102;SDS011;20381;54.498;18.206;2023-02-27T07:22:08;9.95;;;5.67;;
34102;SDS011;20381;54.498;18.206;2023-02-27T07:24:38;15.83;;;6.22;;
34102;SDS011;20381;54.498;18.206;2023-02-27T07:27:15;13.30;;;7.15;;
34102;SDS011;20381;54.498;18.206;2023-02-27T07:29:44;12.80;;;7.67;;
34102;SDS011;20381;54.498;18.206;2023-02-27T07:32:20;12.95;;;8.13;;
34102;SDS011;20381;54.498;18.206;2023-02-27T07:34:52;16.90;;;8.15;;
34102;SDS011;20381;54.498;18.206;2023-02-27T07:41:48;15.38;;;7.67;;
34102;SDS011;20381;54.498;18.206;2023-02-27T07:44:27;15.30;;;8.73;;
34102;SDS011;20381;54.498;18.206;2023-02-27T07:46:58;18.87;;;10.18;;
34102;SDS011;20381;54.498;18.206;2023-02-27T07:49:30;18.07;;;9.48;;
34102;SDS011;20381;54.498;18.206;2023-02-27T07:52:21;16.37;;;10.08;;
34102;SDS011;20381;54.498;18.206;2023-02-27T07:59:14;24.80;;;14.58;;
34102;SDS011;20381;54.498;18.206;2023-02-27T08:01:43;28.00;;;19.10;;
34102;SDS011;20381;54.498;18.206;2023-02-27T08:04:20;28.20;;;17.85;;
34102;SDS011;20381;54.498;18.206;2023-02-27T08:06:53;21.12;;;14.80;;
34102;SDS011;20381;54.498;18.206;2023-02-27T08:09:22;24.87;;;13.95;;
34102;SDS011;20381;54.498;18.206;2023-02-27T08:11:54;20.23;;;13.18;;
34102;SDS011;20381;54.498;18.206;2023-02-27T08:14:31;19.87;;;11.93;;
34102;SDS011;20381;54.498;18.206;2023-02-27T08:17:04;21.35;;;12.73;;
34102;SDS011;20381;54.498;18.206;2023-02-27T08:19:33;17.15;;;11.48;;
34102;SDS011;20381;54.498;18.206;2023-02-27T08:22:06;22.90;;;12.65;;
34102;SDS011;20381;54.498;18.206;2023-02-27T08:24:35;19.48;;;12.23;;
34102;SDS011;20381;54.498;18.206;2023-02-27T08:27:07;18.25;;;11.40;;
34102;SDS011;20381;54.498;18.206;2023-02-27T08:29:40;22.30;;;12.33;;
34102;SDS011;20381;54.498;18.206;2023-02-27T08:32:13;18.60;;;12.47;;
34102;SDS011;20381;54.498;18.206;2023-02-27T08:34:46;18.17;;;12.60;;
34102;SDS011;20381;54.498;18.206;2023-02-27T08:41:21;26.55;;;14.23;;
34102;SDS011;20381;54.498;18.206;2023-02-27T08:50:41;14.25;;;9.50;;
34102;SDS011;20381;54.498;18.206;2023-02-27T08:57:13;16.25;;;10.10;;
34102;SDS011;20381;54.498;18.206;2023-02-27T09:03:43;12.55;;;8.40;;
34102;SDS011;20381;54.498;18.206;2023-02-27T09:10:13;15.72;;;9.45;;
34102;SDS011;20381;54.498;18.206;2023-02-27T09:16:44;27.45;;;15.80;;
34102;SDS011;20381;54.498;18.206;2023-02-27T09:23:20;25.23;;;14.93;;
34102;SDS011;20381;54.498;18.206;2023-02-27T09:25:57;26.50;;;14.38;;
34102;SDS011;20381;54.498;18.206;2023-02-27T09:32:27;22.00;;;11.45;;
34102;SDS011;20381;54.498;18.206;2023-02-27T09:38:57;18.02;;;10.93;;
34102;SDS011;20381;54.498;18.206;2023-02-27T09:47:20;12.58;;;7.62;;
34102;SDS011;20381;54.498;18.206;2023-02-27T09:52:39;12.35;;;7.75;;
34102;SDS011;20381;54.498;18.206;2023-02-27T09:55:13;12.60;;;7.83;;
34102;SDS011;20381;54.498;18.206;2023-02-27T10:01:36;9.78;;;6.62;;
34102;SDS011;20381;54.498;18.206;2023-02-27T10:08:21;12.05;;;6.97;;
34102;SDS011;20381;54.498;18.206;2023-02-27T10:15:26;10.10;;;6.03;;
34102;SDS011;20381;54.498;18.206;2023-02-27T10:22:10;11.33;;;6.50;;
34102;SDS011;20381;54.498;18.206;2023-02-27T10:28:45;5.90;;;4.50;;
34102;SDS011;20381;54.498;18.206;2023-02-27T10:35:32;6.75;;;4.17;;
34102;SDS011;20381;54.498;18.206;2023-02-27T10:42:05;8.98;;;4.05;;
34102;SDS011;20381;54.498;18.206;2023-02-27T10:44:37;4.22;;;3.72;;
34102;SDS011;20381;54.498;18.206;2023-02-27T10:56:54;6.40;;;4.35;;
34102;SDS011;20381;54.498;18.206;2023-02-27T11:03:31;4.90;;;3.22;;
34102;SDS011;20381;54.498;18.206;2023-02-27T11:16:48;4.45;;;2.92;;
34102;SDS011;20381;54.498;18.206;2023-02-27T11:23:27;6.75;;;3.30;;
34102;SDS011;20381;54.498;18.206;2023-02-27T11:30:06;5.15;;;2.90;;
34102;SDS011;20381;54.498;18.206;2023-02-27T11:36:55;4.47;;;2.55;;
34102;SDS011;20381;54.498;18.206;2023-02-27T11:43:37;5.08;;;2.40;;
34102;SDS011;20381;54.498;18.206;2023-02-27T11:57:35;5.20;;;2.25;;
34102;SDS011;20381;54.498;18.206;2023-02-27T12:04:15;2.72;;;1.80;;
34102;SDS011;20381;54.498;18.206;2023-02-27T12:10:56;2.30;;;1.30;;
34102;SDS011;20381;54.498;18.206;2023-02-27T12:17:28;1.40;;;1.07;;
34102;SDS011;20381;54.498;18.206;2023-02-27T12:37:51;2.12;;;1.45;;
34102;SDS011;20381;54.498;18.206;2023-02-27T12:44:34;5.78;;;3.42;;
34102;SDS011;20381;54.498;18.206;2023-02-27T12:54:02;5.08;;;3.27;;
34102;SDS011;20381;54.498;18.206;2023-02-27T12:57:05;9.20;;;4.25;;
34102;SDS011;20381;54.498;18.206;2023-02-27T13:00:12;20.40;;;11.73;;
34102;SDS011;20381;54.498;18.206;2023-02-27T13:05:45;8.20;;;4.47;;
34102;SDS011;20381;54.498;18.206;2023-02-27T13:17:36;2.98;;;2.08;;
34102;SDS011;20381;54.498;18.206;2023-02-27T13:20:24;4.40;;;1.92;;
34102;SDS011;20381;54.498;18.206;2023-02-27T13:30:31;1.50;;;1.17;;
34102;SDS011;20381;54.498;18.206;2023-02-27T13:36:53;1.77;;;1.10;;
34102;SDS011;20381;54.498;18.206;2023-02-27T13:43:39;2.27;;;1.52;;
34102;SDS011;20381;54.498;18.206;2023-02-27T13:50:46;6.42;;;4.22;;
34102;SDS011;20381;54.498;18.206;2023-02-27T13:52:56;11.63;;;6.90;;
34102;SDS011;20381;54.498;18.206;2023-02-27T13:55:33;5.70;;;3.37;;
34102;SDS011;20381;54.498;18.206;2023-02-27T13:58:11;3.58;;;1.60;;
34102;SDS011;20381;54.498;18.206;2023-02-27T14:00:46;1.82;;;0.90;;
34102;SDS011;20381;54.498;18.206;2023-02-27T14:03:27;2.00;;;1.10;;
34102;SDS011;20381;54.498;18.206;2023-02-27T14:05:59;2.80;;;1.57;;
34102;SDS011;20381;54.498;18.206;2023-02-27T14:08:45;3.95;;;2.22;;
34102;SDS011;20381;54.498;18.206;2023-02-27T14:11:15;6.53;;;3.22;;
34102;SDS011;20381;54.498;18.206;2023-02-27T14:22:01;2.02;;;1.20;;
34102;SDS011;20381;54.498;18.206;2023-02-27T14:24:52;3.02;;;1.20;;
34102;SDS011;20381;54.498;18.206;2023-02-27T14:27:26;2.42;;;0.82;;
34102;SDS011;20381;54.498;18.206;2023-02-27T14:30:29;4.05;;;1.55;;
34102;SDS011;20381;54.498;18.206;2023-02-27T14:33:17;4.05;;;1.70;;
34102;SDS011;20381;54.498;18.206;2023-02-27T14:35:59;2.95;;;1.10;;
34102;SDS011;20381;54.498;18.206;2023-02-27T14:38:35;3.75;;;1.92;;
34102;SDS011;20381;54.498;18.206;2023-02-27T14:45:12;1.20;;;1.00;;
34102;SDS011;20381;54.498;18.206;2023-02-27T14:47:47;1.62;;;0.95;;
34102;SDS011;20381;54.498;18.206;2023-02-27T14:50:32;1.80;;;1.17;;
34102;SDS011;20381;54.498;18.206;2023-02-27T14:57:35;2.62;;;1.10;;
34102;SDS011;20381;54.498;18.206;2023-02-27T15:00:27;1.87;;;1.30;;
34102;SDS011;20381;54.498;18.206;2023-02-27T15:02:44;2.95;;;1.35;;
34102;SDS011;20381;54.498;18.206;2023-02-27T15:05:14;2.92;;;1.40;;
34102;SDS011;20381;54.498;18.206;2023-02-27T15:08:01;2.42;;;1.47;;
34102;SDS011;20381;54.498;18.206;2023-02-27T15:10:58;2.47;;;1.72;;
34102;SDS011;20381;54.498;18.206;2023-02-27T15:13:34;4.90;;;1.95;;
34102;SDS011;20381;54.498;18.206;2023-02-27T15:16:25;2.62;;;1.80;;
34102;SDS011;20381;54.498;18.206;2023-02-27T15:19:20;3.90;;;2.15;;
34102;SDS011;20381;54.498;18.206;2023-02-27T15:21:57;4.22;;;1.55;;
34102;SDS011;20381;54.498;18.206;2023-02-27T15:24:36;2.52;;;1.70;;
34102;SDS011;20381;54.498;18.206;2023-02-27T15:27:12;3.58;;;2.17;;
34102;SDS011;20381;54.498;18.206;2023-02-27T15:32:27;3.42;;;1.57;;
34102;SDS011;20381;54.498;18.206;2023-02-27T15:35:04;7.62;;;2.20;;
34102;SDS011;20381;54.498;18.206;2023-02-27T15:37:51;3.27;;;1.77;;
34102;SDS011;20381;54.498;18.206;2023-02-27T15:40:25;5.17;;;2.27;;
34102;SDS011;20381;54.498;18.206;2023-02-27T15:42:57;3.52;;;1.65;;
34102;SDS011;20381;54.498;18.206;2023-02-27T15:45:32;5.58;;;1.42;;
34102;SDS011;20381;54.498;18.206;2023-02-27T15:48:03;6.22;;;2.45;;
34102;SDS011;20381;54.498;18.206;2023-02-27T15:50:41;3.83;;;2.45;;
34102;SDS011;20381;54.498;18.206;2023-02-27T15:53:17;5.30;;;2.98;;
34102;SDS011;20381;54.498;18.206;2023-02-27T15:55:58;5.40;;;3.02;;
34102;SDS011;20381;54.498;18.206;2023-02-27T15:58:36;8.40;;;3.12;;
34102;SDS011;20381;54.498;18.206;2023-02-27T16:03:51;6.83;;;3.60;;
34102;SDS011;20381;54.498;18.206;2023-02-27T16:09:05;4.72;;;2.15;;
34102;SDS011;20381;54.498;18.206;2023-02-27T16:15:19;5.78;;;3.10;;
34102;SDS011;20381;54.498;18.206;2023-02-27T16:24:45;6.45;;;3.92;;
34102;SDS011;20381;54.498;18.206;2023-02-27T16:34:47;113.45;;;40.60;;
34102;SDS011;20381;54.498;18.206;2023-02-27T16:41:23;18.50;;;8.75;;
34102;SDS011;20381;54.498;18.206;2023-02-27T16:52:33;27.98;;;13.93;;
34102;SDS011;20381;54.498;18.206;2023-02-27T16:59:05;31.57;;;15.15;;
34102;SDS011;20381;54.498;18.206;2023-02-27T17:05:36;35.78;;;16.20;;
34102;SDS011;20381;54.498;18.206;2023-02-27T17:08:10;50.05;;;28.75;;
34102;SDS011;20381;54.498;18.206;2023-02-27T17:14:41;23.67;;;13.55;;
34102;SDS011;20381;54.498;18.206;2023-02-27T17:17:17;20.32;;;12.18;;
34102;SDS011;20381;54.498;18.206;2023-02-27T17:19:50;20.35;;;13.35;;
34102;SDS011;20381;54.498;18.206;2023-02-27T17:26:22;30.68;;;16.67;;
34102;SDS011;20381;54.498;18.206;2023-02-27T17:32:45;29.07;;;18.45;;
34102;SDS011;20381;54.498;18.206;2023-02-27T17:35:15;49.38;;;19.32;;
34102;SDS011;20381;54.498;18.206;2023-02-27T17:37:48;34.53;;;18.37;;
34102;SDS011;20381;54.498;18.206;2023-02-27T17:40:16;35.70;;;19.37;;
34102;SDS011;20381;54.498;18.206;2023-02-27T17:42:53;40.25;;;20.27;;
34102;SDS011;20381;54.498;18.206;2023-02-27T17:45:22;62.80;;;31.57;;
34102;SDS011;20381;54.498;18.206;2023-02-27T17:47:59;57.25;;;29.63;;
34102;SDS011;20381;54.498;18.206;2023-02-27T17:50:28;52.85;;;26.57;;
34102;SDS011;20381;54.498;18.206;2023-02-27T17:53:00;65.50;;;27.77;;
34102;SDS011;20381;54.498;18.206;2023-02-27T17:55:37;69.25;;;33.42;;
34102;SDS011;20381;54.498;18.206;2023-02-27T17:58:06;83.65;;;41.83;;
34102;SDS011;20381;54.498;18.206;2023-02-27T18:03:44;90.50;;;52.33;;
34102;SDS011;20381;54.498;18.206;2023-02-27T18:09:58;93.80;;;49.15;;
34102;SDS011;20381;54.498;18.206;2023-02-27T18:16:32;89.85;;;44.10;;
34102;SDS011;20381;54.498;18.206;2023-02-27T18:19:07;93.33;;;45.50;;
34102;SDS011;20381;54.498;18.206;2023-02-27T18:21:39;85.07;;;40.33;;
34102;SDS011;20381;54.498;18.206;2023-02-27T18:24:19;73.95;;;35.30;;
34102;SDS011;20381;54.498;18.206;2023-02-27T18:26:52;78.45;;;39.38;;
34102;SDS011;20381;54.498;18.206;2023-02-27T18:29:21;79.05;;;41.08;;
34102;SDS011;20381;54.498;18.206;2023-02-27T18:31:58;95.30;;;44.15;;
34102;SDS011;20381;54.498;18.206;2023-02-27T18:34:31;106.90;;;54.30;;
34102;SDS011;20381;54.498;18.206;2023-02-27T18:37:04;156.63;;;78.22;;
34102;SDS011;20381;54.498;18.206;2023-02-27T18:39:40;91.78;;;48.92;;
34102;SDS011;20381;54.498;18.206;2023-02-27T18:42:16;108.10;;;51.53;;
34102;SDS011;20381;54.498;18.206;2023-02-27T18:44:48;119.28;;;57.60;;
34102;SDS011;20381;54.498;18.206;2023-02-27T18:47:20;132.80;;;61.25;;
34102;SDS011;20381;54.498;18.206;2023-02-27T18:50:13;124.87;;;58.92;;
34102;SDS011;20381;54.498;18.206;2023-02-27T18:52:44;132.37;;;59.05;;
34102;SDS011;20381;54.498;18.206;2023-02-27T18:55:36;112.60;;;53.50;;
34102;SDS011;20381;54.498;18.206;2023-02-27T18:58:12;102.00;;;47.98;;
34102;SDS011;20381;54.498;18.206;2023-02-27T19:00:56;92.90;;;47.73;;
34102;SDS011;20381;54.498;18.206;2023-02-27T19:03:36;97.70;;;47.25;;
34102;SDS011;20381;54.498;18.206;2023-02-27T19:06:12;93.27;;;42.05;;
34102;SDS011;20381;54.498;18.206;2023-02-27T19:08:52;92.15;;;41.23;;
34102;SDS011;20381;54.498;18.206;2023-02-27T19:11:26;84.62;;;41.90;;
34102;SDS011;20381;54.498;18.206;2023-02-27T19:14:02;90.83;;;42.98;;
34102;SDS011;20381;54.498;18.206;2023-02-27T19:16:35;93.65;;;40.55;;
34102;SDS011;20381;54.498;18.206;2023-02-27T19:19:07;99.90;;;47.83;;
34102;SDS011;20381;54.498;18.206;2023-02-27T19:21:39;109.55;;;50.58;;
34102;SDS011;20381;54.498;18.206;2023-02-27T19:24:09;103.42;;;48.58;;
34102;SDS011;20381;54.498;18.206;2023-02-27T19:26:49;114.32;;;57.93;;
34102;SDS011;20381;54.498;18.206;2023-02-27T19:29:23;113.25;;;55.95;;
34102;SDS011;20381;54.498;18.206;2023-02-27T19:31:55;103.90;;;46.83;;
34102;SDS011;20381;54.498;18.206;2023-02-27T19:34:40;101.12;;;46.63;;
34102;SDS011;20381;54.498;18.206;2023-02-27T19:37:12;99.37;;;43.30;;
34102;SDS011;20381;54.498;18.206;2023-02-27T19:39:52;91.35;;;40.90;;
34102;SDS011;20381;54.498;18.206;2023-02-27T19:42:33;91.22;;;40.63;;
34102;SDS011;20381;54.498;18.206;2023-02-27T19:45:02;79.30;;;41.10;;
34102;SDS011;20381;54.498;18.206;2023-02-27T19:47:41;70.32;;;34.78;;
34102;SDS011;20381;54.498;18.206;2023-02-27T19:50:16;67.37;;;31.93;;
34102;SDS011;20381;54.498;18.206;2023-02-27T19:52:48;63.48;;;31.90;;
34102;SDS011;20381;54.498;18.206;2023-02-27T19:55:20;65.37;;;33.25;;
34102;SDS011;20381;54.498;18.206;2023-02-27T19:57:57;65.50;;;33.10;;
34102;SDS011;20381;54.498;18.206;2023-02-27T20:00:26;61.88;;;34.90;;
34102;SDS011;20381;54.498;18.206;2023-02-27T20:06:58;65.03;;;33.00;;
34102;SDS011;20381;54.498;18.206;2023-02-27T20:09:31;65.50;;;33.28;;
34102;SDS011;20381;54.498;18.206;2023-02-27T20:12:07;72.03;;;34.73;;
34102;SDS011;20381;54.498;18.206;2023-02-27T20:14:43;78.07;;;38.05;;
34102;SDS011;20381;54.498;18.206;2023-02-27T20:17:13;79.95;;;38.48;;
34102;SDS011;20381;54.498;18.206;2023-02-27T20:19:50;76.87;;;38.75;;
34102;SDS011;20381;54.498;18.206;2023-02-27T20:22:22;84.10;;;39.65;;
34102;SDS011;20381;54.498;18.206;2023-02-27T20:25:01;84.65;;;39.60;;
34102;SDS011;20381;54.498;18.206;2023-02-27T20:27:36;86.65;;;40.65;;
34102;SDS011;20381;54.498;18.206;2023-02-27T20:30:09;89.35;;;42.70;;
34102;SDS011;20381;54.498;18.206;2023-02-27T20:32:46;90.60;;;40.30;;
34102;SDS011;20381;54.498;18.206;2023-02-27T20:35:18;85.60;;;41.40;;
34102;SDS011;20381;54.498;18.206;2023-02-27T20:37:55;88.92;;;40.95;;
34102;SDS011;20381;54.498;18.206;2023-02-27T20:40:28;80.38;;;37.13;;
34102;SDS011;20381;54.498;18.206;2023-02-27T20:43:00;81.32;;;39.88;;
34102;SDS011;20381;54.498;18.206;2023-02-27T20:45:43;78.28;;;41.23;;
34102;SDS011;20381;54.498;18.206;2023-02-27T20:48:10;86.60;;;41.85;;
34102;SDS011;20381;54.498;18.206;2023-02-27T20:50:47;94.60;;;45.08;;
34102;SDS011;20381;54.498;18.206;2023-02-27T20:53:23;95.00;;;44.45;;
34102;SDS011;20381;54.498;18.206;2023-02-27T20:55:58;89.83;;;40.90;;
34102;SDS011;20381;54.498;18.206;2023-02-27T20:58:29;106.92;;;54.70;;
34102;SDS011;20381;54.498;18.206;2023-02-27T21:00:58;96.67;;;49.08;;
34102;SDS011;20381;54.498;18.206;2023-02-27T21:03:32;91.15;;;45.12;;
34102;SDS011;20381;54.498;18.206;2023-02-27T21:06:15;113.88;;;52.90;;
34102;SDS011;20381;54.498;18.206;2023-02-27T21:08:47;118.22;;;57.38;;
34102;SDS011;20381;54.498;18.206;2023-02-27T21:11:23;102.72;;;50.48;;
34102;SDS011;20381;54.498;18.206;2023-02-27T21:14:00;117.00;;;60.70;;
34102;SDS011;20381;54.498;18.206;2023-02-27T21:16:37;114.08;;;59.48;;
34102;SDS011;20381;54.498;18.206;2023-02-27T21:19:11;123.90;;;62.85;;
34102;SDS011;20381;54.498;18.206;2023-02-27T21:21:44;114.97;;;54.85;;
34102;SDS011;20381;54.498;18.206;2023-02-27T21:24:17;109.20;;;59.23;;
34102;SDS011;20381;54.498;18.206;2023-02-27T21:26:49;119.82;;;61.95;;
34102;SDS011;20381;54.498;18.206;2023-02-27T21:29:22;124.12;;;59.48;;
34102;SDS011;20381;54.498;18.206;2023-02-27T21:31:55;99.58;;;50.23;;
34102;SDS011;20381;54.498;18.206;2023-02-27T21:34:32;77.40;;;36.40;;
34102;SDS011;20381;54.498;18.206;2023-02-27T21:37:01;77.55;;;35.17;;
34102;SDS011;20381;54.498;18.206;2023-02-27T21:39:37;91.82;;;45.83;;
34102;SDS011;20381;54.498;18.206;2023-02-27T21:42:08;94.22;;;44.88;;
34102;SDS011;20381;54.498;18.206;2023-02-27T21:44:42;115.08;;;57.58;;
34102;SDS011;20381;54.498;18.206;2023-02-27T21:47:12;114.90;;;56.50;;
34102;SDS011;20381;54.498;18.206;2023-02-27T21:49:45;120.67;;;58.33;;
34102;SDS011;20381;54.498;18.206;2023-02-27T21:52:20;117.65;;;55.92;;
34102;SDS011;20381;54.498;18.206;2023-02-27T21:54:54;139.70;;;62.43;;
34102;SDS011;20381;54.498;18.206;2023-02-27T21:57:23;116.28;;;59.55;;
34102;SDS011;20381;54.498;18.206;2023-02-27T21:59:55;110.60;;;53.78;;
34102;SDS011;20381;54.498;18.206;2023-02-27T22:02:28;118.62;;;53.92;;
34102;SDS011;20381;54.498;18.206;2023-02-27T22:05:01;123.15;;;60.75;;
34102;SDS011;20381;54.498;18.206;2023-02-27T22:07:30;122.15;;;56.63;;
34102;SDS011;20381;54.498;18.206;2023-02-27T22:10:00;114.22;;;53.13;;
34102;SDS011;20381;54.498;18.206;2023-02-27T22:12:32;107.30;;;52.95;;
34102;SDS011;20381;54.498;18.206;2023-02-27T22:15:08;111.08;;;55.17;;
34102;SDS011;20381;54.498;18.206;2023-02-27T22:17:41;103.30;;;54.80;;
34102;SDS011;20381;54.498;18.206;2023-02-27T22:20:14;103.07;;;54.45;;
34102;SDS011;20381;54.498;18.206;2023-02-27T22:22:55;101.45;;;50.88;;
34102;SDS011;20381;54.498;18.206;2023-02-27T22:25:27;96.97;;;47.38;;
34102;SDS011;20381;54.498;18.206;2023-02-27T22:28:02;120.70;;;56.13;;
34102;SDS011;20381;54.498;18.206;2023-02-27T22:30:37;121.33;;;58.20;;
34102;SDS011;20381;54.498;18.206;2023-02-27T22:33:06;116.33;;;55.38;;
34102;SDS011;20381;54.498;18.206;2023-02-27T22:35:42;126.05;;;59.30;;
34102;SDS011;20381;54.498;18.206;2023-02-27T22:38:15;115.72;;;55.50;;
34102;SDS011;20381;54.498;18.206;2023-02-27T22:40:48;105.22;;;50.73;;
34102;SDS011;20381;54.498;18.206;2023-02-27T22:43:21;105.47;;;51.10;;
34102;SDS011;20381;54.498;18.206;2023-02-27T22:45:54;110.05;;;55.50;;
34102;SDS011;20381;54.498;18.206;2023-02-27T22:48:22;104.87;;;50.33;;
34102;SDS011;20381;54.498;18.206;2023-02-27T22:51:03;112.83;;;56.15;;
34102;SDS011;20381;54.498;18.206;2023-02-27T22:57:27;113.90;;;54.30;;
34102;SDS011;20381;54.498;18.206;2023-02-27T23:04:00;121.75;;;55.23;;
34102;SDS011;20381;54.498;18.206;2023-02-27T23:10:33;109.50;;;52.60;;
34102;SDS011;20381;54.498;18.206;2023-02-27T23:17:14;116.75;;;49.40;;
34102;SDS011;20381;54.498;18.206;2023-02-27T23:23:45;159.60;;;60.55;;
34102;SDS011;20381;54.498;18.206;2023-02-27T23:30:20;114.85;;;48.35;;
34102;SDS011;20381;54.498;18.206;2023-02-27T23:46:14;121.42;;;52.10;;
34102;SDS011;20381;54.498;18.206;2023-02-27T23:52:37;93.90;;;46.80;;
34102;SDS011;20381;54.498;18.206;2023-02-27T23:59:11;90.50;;;43.17;;
